Time;durP1;ratioP1;P1;durP2;ratioP2;P2;SDS_P1;SDS_P2;PMS_P1;PMS_P2;Temp;Humidity;BMP_temperature;BMP_pressure;BME280_temperature;BME280_humidity;BME280_pressure;Samples;Min_cycle;Max_cycle;Signal;HPM_P1;HPM_P2
2022/05/05 06:06:56;;;;;;;22.63;5.72;;;14.70;70.10;;;;;;5052481;28;20087;-68
2022/05/05 06:09:22;;;;;;;12.57;3.97;;;14.80;70.20;;;;;;5052164;28;20090;-68
2022/05/05 06:11:48;;;;;;;7.47;3.17;;;14.80;69.10;;;;;;5052186;28;20037;-68
2022/05/05 06:14:14;;;;;;;5.70;3.28;;;14.90;67.60;;;;;;5051905;28;20386;-67
2022/05/05 06:16:39;;;;;;;17.38;3.65;;;15.00;67.10;;;;;;5052185;28;20119;-67
2022/05/05 06:19:05;;;;;;;15.20;3.47;;;15.10;66.40;;;;;;5052295;28;20040;-68
2022/05/05 06:21:31;;;;;;;12.35;3.50;;;15.10;66.30;;;;;;5052384;28;20056;-68
2022/05/05 06:23:56;;;;;;;6.93;3.40;;;15.20;66.70;;;;;;5051506;28;20033;-67
2022/05/05 06:26:23;;;;;;;6.38;3.22;;;15.30;66.10;;;;;;5051689;28;20045;-67
2022/05/05 06:28:49;;;;;;;7.38;3.30;;;15.40;66.40;;;;;;5052393;28;20112;-68
2022/05/05 06:31:16;;;;;;;4.18;2.95;;;15.50;67.10;;;;;;5036101;28;20045;-68
2022/05/05 06:33:43;;;;;;;17.30;3.05;;;15.50;65.30;;;;;;5072751;28;20119;-67
2022/05/05 06:36:09;;;;;;;8.07;2.63;;;15.60;64.90;;;;;;5072312;28;20560;-68
2022/05/05 06:38:35;;;;;;;5.05;2.85;;;15.70;65.00;;;;;;5072066;28;20188;-68
2022/05/05 06:41:01;;;;;;;7.93;3.00;;;15.80;64.90;;;;;;5071974;28;20063;-68
2022/05/05 06:43:27;;;;;;;8.27;2.90;;;15.80;64.50;;;;;;5072380;28;20505;-67
2022/05/05 06:45:53;;;;;;;7.50;2.80;;;15.90;63.40;;;;;;5072464;28;20045;-68
2022/05/05 06:48:19;;;;;;;4.38;2.55;;;15.90;63.20;;;;;;5072533;28;20057;-68
2022/05/05 06:50:45;;;;;;;9.02;3.45;;;16.00;62.70;;;;;;5072442;28;20099;-67
2022/05/05 06:53:10;;;;;;;8.02;4.03;;;16.10;62.80;;;;;;5072723;28;20393;-68
2022/05/05 06:55:36;;;;;;;18.08;5.10;;;16.20;63.20;;;;;;5072586;28;20047;-68
2022/05/05 06:58:02;;;;;;;28.38;6.03;;;16.30;64.30;;;;;;5072533;28;20044;-68
2022/05/05 07:03:12;;;;;;;19.65;5.18;;;16.40;64.60;;;;;;5072221;28;20036;-68
2022/05/05 07:05:38;;;;;;;12.20;4.53;;;16.40;65.50;;;;;;5072181;28;20501;-68
2022/05/05 07:08:03;;;;;;;21.92;4.32;;;16.50;65.10;;;;;;5072509;28;20038;-68
2022/05/05 07:13:14;;;;;;;12.13;4.35;;;16.60;65.40;;;;;;5072579;28;20116;-68
2022/05/05 07:15:40;;;;;;;18.92;4.43;;;16.60;65.60;;;;;;5072595;28;20064;-68
2022/05/05 07:18:06;;;;;;;13.30;4.28;;;16.70;65.30;;;;;;5072400;28;20074;-68
2022/05/05 07:20:32;;;;;;;16.02;3.97;;;16.70;65.80;;;;;;5072334;28;20040;-68
2022/05/05 07:22:58;;;;;;;16.52;4.35;;;16.80;65.10;;;;;;5072452;28;20077;-68
2022/05/05 07:25:24;;;;;;;11.85;4.30;;;16.80;65.10;;;;;;5072248;28;20494;-68
2022/05/05 07:27:50;;;;;;;15.63;4.07;;;16.80;64.50;;;;;;5072101;28;20041;-68
2022/05/05 07:30:16;;;;;;;12.70;4.07;;;16.90;64.50;;;;;;5071918;28;20462;-67
2022/05/05 07:32:42;;;;;;;12.02;3.70;;;17.00;63.50;;;;;;5072168;28;20064;-68
2022/05/05 07:35:09;;;;;;;11.15;3.83;;;17.10;62.70;;;;;;5072407;28;20029;-68
2022/05/05 07:37:37;;;;;;;10.10;3.00;;;17.10;62.80;;;;;;5075980;28;20039;-67
2022/05/05 07:40:04;;;;;;;13.80;3.10;;;17.20;61.10;;;;;;5075483;28;20048;-67
2022/05/05 07:42:30;;;;;;;11.00;3.67;;;17.20;60.00;;;;;;5075686;28;20033;-70
2022/05/05 07:44:56;;;;;;;3.33;2.60;;;17.30;59.90;;;;;;5075514;28;20038;-68
2022/05/05 07:47:22;;;;;;;5.78;3.10;;;17.30;58.90;;;;;;5073952;28;20028;-67
2022/05/05 07:49:47;;;;;;;8.98;2.95;;;17.30;57.30;;;;;;5075030;28;20028;-67
2022/05/05 07:52:13;;;;;;;9.05;2.78;;;17.40;57.70;;;;;;5075201;28;20036;-67
2022/05/05 07:54:39;;;;;;;4.93;2.50;;;17.50;58.50;;;;;;5077321;28;20029;-67
2022/05/05 07:57:08;;;;;;;5.82;3.05;;;17.60;57.80;;;;;;5074896;28;20032;-67
2022/05/05 07:59:34;;;;;;;9.00;2.88;;;17.60;58.00;;;;;;5075066;28;20044;-67
2022/05/05 08:02:00;;;;;;;5.13;2.60;;;17.70;57.30;;;;;;5074268;28;20084;-67
2022/05/05 08:04:26;;;;;;;7.50;2.50;;;17.80;56.00;;;;;;5073335;28;20396;-68
2022/05/05 08:06:52;;;;;;;5.40;2.30;;;17.80;56.00;;;;;;5089186;28;20059;-67
2022/05/05 08:09:18;;;;;;;10.85;3.33;;;17.90;56.10;;;;;;5079225;28;20060;-67
2022/05/05 08:11:44;;;;;;;6.60;2.67;;;18.00;56.50;;;;;;5074589;28;20515;-67
2022/05/05 08:14:10;;;;;;;3.80;2.60;;;18.10;55.70;;;;;;5074442;28;20082;-67
2022/05/05 08:16:36;;;;;;;8.38;2.45;;;18.10;55.00;;;;;;5074528;28;20047;-68
2022/05/05 08:19:02;;;;;;;5.53;2.80;;;18.20;54.80;;;;;;5073597;28;20029;-67
2022/05/05 08:21:28;;;;;;;4.68;2.60;;;18.20;55.90;;;;;;5074522;28;20119;-68
2022/05/05 08:28:27;;;;;;;4.68;2.83;;;18.20;54.50;;;;;;5074707;28;20117;-68
2022/05/05 08:29:24;;;;;;;5.10;2.88;;;18.30;53.80;;;;;;5075084;28;20178;-67
2022/05/05 08:31:49;;;;;;;6.03;2.33;;;18.40;54.20;;;;;;5074849;28;20492;-67
2022/05/05 08:34:15;;;;;;;4.88;2.70;;;18.40;52.20;;;;;;5074542;28;20060;-67
2022/05/05 08:36:41;;;;;;;4.15;2.45;;;18.40;52.90;;;;;;5074709;28;20025;-68
2022/05/05 08:39:06;;;;;;;7.35;2.65;;;18.40;53.70;;;;;;5074294;28;20044;-68
2022/05/05 08:41:33;;;;;;;5.65;2.35;;;18.40;54.40;;;;;;5074514;28;20469;-67
2022/05/05 08:44:00;;;;;;;6.05;2.30;;;18.50;54.30;;;;;;5074382;28;20024;-68
2022/05/05 08:46:27;;;;;;;4.22;2.30;;;18.60;53.90;;;;;;5074337;28;20025;-67
2022/05/05 08:49:01;;;;;;;5.10;2.35;;;18.60;54.00;;;;;;5074410;28;20063;-68
2022/05/05 08:51:30;;;;;;;7.57;2.40;;;18.70;52.80;;;;;;5074327;28;20048;-68
2022/05/05 08:53:58;;;;;;;5.03;2.33;;;18.70;52.80;;;;;;5073975;28;20028;-69
2022/05/05 08:56:23;;;;;;;3.63;2.20;;;18.70;52.00;;;;;;5074352;28;20036;-68
2022/05/05 08:58:49;;;;;;;4.30;2.58;;;18.70;52.40;;;;;;5074051;28;20505;-68
2022/05/05 09:01:15;;;;;;;5.90;2.60;;;18.70;52.10;;;;;;5073826;28;20049;-68
2022/05/05 09:03:41;;;;;;;4.82;2.50;;;18.70;52.90;;;;;;5073567;28;20029;-68
2022/05/05 09:06:07;;;;;;;4.95;2.55;;;18.80;53.40;;;;;;5073455;28;20056;-68
2022/05/05 09:08:34;;;;;;;4.10;2.38;;;18.80;52.70;;;;;;5073962;28;20469;-68
2022/05/05 09:11:05;;;;;;;10.05;2.70;;;18.90;52.10;;;;;;5074184;28;20048;-67
2022/05/05 09:13:31;;;;;;;5.35;2.40;;;18.90;52.00;;;;;;5073674;28;20037;-68
2022/05/05 09:15:57;;;;;;;9.57;2.60;;;18.90;51.80;;;;;;5073614;28;20044;-68
2022/05/05 09:18:25;;;;;;;4.07;2.60;;;18.90;50.30;;;;;;5073054;28;20420;-68
2022/05/05 09:20:51;;;;;;;7.90;2.45;;;19.00;50.10;;;;;;5071681;28;20044;-68
2022/05/05 09:26:30;;;;;;;7.32;2.30;;;19.00;52.30;;;;;;5065406;28;20095;-68
2022/05/05 09:28:57;;;;;;;4.30;2.80;;;19.00;53.40;;;;;;5073075;28;20113;-69
2022/05/05 09:31:23;;;;;;;4.28;2.75;;;19.10;52.90;;;;;;5073602;28;20039;-68
2022/05/05 09:33:50;;;;;;;4.38;2.58;;;19.20;53.20;;;;;;5073902;28;20389;-68
2022/05/05 09:36:25;;;;;;;6.70;2.70;;;19.20;51.70;;;;;;5073592;28;20036;-68
2022/05/05 09:38:51;;;;;;;2.90;2.47;;;19.30;52.50;;;;;;5073591;28;20035;-68
2022/05/05 09:41:18;;;;;;;6.00;2.67;;;19.30;51.40;;;;;;5073601;28;20040;-68
2022/05/05 09:43:44;;;;;;;3.97;2.60;;;19.40;51.50;;;;;;5073592;28;20032;-68
2022/05/05 09:46:25;;;;;;;6.68;2.58;;;19.40;52.50;;;;;;5073644;28;20029;-68
2022/05/05 09:49:12;;;;;;;5.93;2.33;;;19.50;52.50;;;;;;5072866;28;20028;-68
2022/05/05 09:51:42;;;;;;;3.00;2.20;;;19.60;51.30;;;;;;5072517;28;20086;-68
2022/05/05 09:59:50;;;;;;;4.75;2.42;;;19.60;46.50;;;;;;5072396;28;20047;-68
2022/05/05 10:05:12;;;;;;;5.05;2.65;;;19.70;50.40;;;;;;5041083;28;20277;-68
2022/05/05 10:07:44;;;;;;;5.40;2.72;;;19.80;50.80;;;;;;5073095;28;20039;-68
2022/05/05 10:10:15;;;;;;;7.88;2.72;;;19.80;51.20;;;;;;5073202;28;20039;-68
2022/05/05 10:12:41;;;;;;;4.28;2.45;;;19.90;51.20;;;;;;5073096;28;20033;-68
2022/05/05 10:15:10;;;;;;;6.55;2.20;;;19.90;47.20;;;;;;5072196;28;20036;-68
2022/05/05 10:17:37;;;;;;;4.65;2.08;;;19.90;47.80;;;;;;5072595;28;20128;-68
2022/05/05 10:20:04;;;;;;;5.05;2.15;;;19.90;47.60;;;;;;5072336;28;20040;-68
2022/05/05 10:22:59;;;;;;;4.07;2.15;;;19.90;46.40;;;;;;5072327;28;20087;-68
2022/05/05 10:25:26;;;;;;;9.07;2.70;;;19.90;46.60;;;;;;5072017;28;20057;-68
2022/05/05 10:27:54;;;;;;;3.70;2.00;;;19.90;47.20;;;;;;5072673;28;20879;-68
2022/05/05 10:30:34;;;;;;;5.47;2.15;;;19.90;49.00;;;;;;5076349;28;20473;-68
2022/05/05 10:33:01;;;;;;;3.50;2.20;;;19.90;48.10;;;;;;5073355;28;20094;-68
2022/05/05 10:35:37;;;;;;;3.30;2.22;;;19.90;46.30;;;;;;5072313;28;20489;-68
2022/05/05 10:38:03;;;;;;;5.60;2.30;;;20.00;46.40;;;;;;5072429;28;20508;-67
2022/05/05 10:40:44;;;;;;;4.32;2.35;;;20.00;45.90;;;;;;5072714;28;20045;-68
2022/05/05 10:43:10;;;;;;;5.68;2.50;;;19.90;46.70;;;;;;5072241;28;20048;-67
2022/05/05 10:45:35;;;;;;;4.88;2.17;;;19.90;46.60;;;;;;5071740;28;20029;-67
2022/05/05 10:48:04;;;;;;;3.92;2.47;;;20.00;46.80;;;;;;5072222;28;20075;-67
2022/05/05 10:50:50;;;;;;;7.38;2.80;;;20.00;47.90;;;;;;5072662;28;20035;-67
2022/05/05 10:53:37;;;;;;;4.03;2.20;;;20.00;48.20;;;;;;5071598;28;20052;-68
2022/05/05 10:56:24;;;;;;;5.38;2.35;;;20.10;46.50;;;;;;5072649;28;20037;-68
2022/05/05 10:59:09;;;;;;;3.88;2.58;;;20.10;46.70;;;;;;5072568;28;20111;-67
2022/05/05 11:01:44;;;;;;;4.82;2.20;;;20.10;45.30;;;;;;5072660;28;20059;-68
2022/05/05 11:04:15;;;;;;;4.13;2.50;;;20.10;48.20;;;;;;5072533;28;20037;-67
2022/05/05 11:06:42;;;;;;;4.75;2.60;;;20.10;48.60;;;;;;5072001;28;20055;-68
2022/05/05 11:09:08;;;;;;;6.10;2.58;;;20.10;49.60;;;;;;5072209;28;20043;-67
2022/05/05 11:11:40;;;;;;;6.22;2.70;;;20.10;49.90;;;;;;5075451;28;20041;-67
2022/05/05 11:23:00;;;;;;;5.18;2.58;;;20.30;49.40;;;;;;5076266;28;20082;-68
2022/05/05 11:25:26;;;;;;;5.55;2.90;;;20.40;50.30;;;;;;5075299;28;20040;-68
2022/05/05 11:27:56;;;;;;;5.90;2.88;;;20.40;48.60;;;;;;5075446;28;20087;-68
2022/05/05 11:30:22;;;;;;;6.55;2.90;;;20.40;50.40;;;;;;5075368;28;20105;-69
2022/05/05 11:32:48;;;;;;;5.88;2.83;;;20.50;50.90;;;;;;5090096;28;20039;-69
2022/05/05 11:35:22;;;;;;;6.97;2.60;;;20.50;49.80;;;;;;5095186;28;20028;-69
2022/05/05 11:37:48;;;;;;;7.30;2.92;;;20.50;49.90;;;;;;5095434;28;20028;-68
2022/05/05 11:40:14;;;;;;;7.30;2.50;;;20.50;49.40;;;;;;5095765;28;20094;-69
2022/05/05 11:45:34;;;;;;;5.72;2.80;;;20.60;48.60;;;;;;5096253;28;20063;-67
2022/05/05 11:48:17;;;;;;;4.90;2.78;;;20.50;49.10;;;;;;5084655;28;20029;-67
2022/05/05 11:50:46;;;;;;;6.72;3.10;;;20.60;48.80;;;;;;5072043;28;20104;-67
2022/05/05 11:53:17;;;;;;;8.77;2.88;;;20.50;48.70;;;;;;5075311;28;20109;-67
2022/05/05 11:55:44;;;;;;;6.68;2.90;;;20.50;49.40;;;;;;5075329;28;20028;-66
2022/05/05 12:04:00;;;;;;;4.47;2.70;;;20.60;50.30;;;;;;5075092;28;20591;-67
2022/05/05 12:06:27;;;;;;;6.45;2.72;;;20.70;52.00;;;;;;5074675;28;20171;-67
2022/05/05 12:08:56;;;;;;;5.47;2.80;;;20.70;48.90;;;;;;5074572;28;20508;-67
2022/05/05 12:11:25;;;;;;;4.65;2.53;;;20.70;50.30;;;;;;5073615;28;20431;-67
2022/05/05 12:13:51;;;;;;;6.63;2.60;;;20.70;48.00;;;;;;5071647;28;20123;-67
2022/05/05 12:16:19;;;;;;;4.53;2.85;;;20.70;48.50;;;;;;5071389;28;20544;-68
2022/05/05 12:18:52;;;;;;;3.65;2.40;;;20.70;48.10;;;;;;5073072;28;20037;-67
2022/05/05 12:21:26;;;;;;;11.48;2.58;;;20.70;49.30;;;;;;5073872;28;20582;-67
2022/05/05 12:24:03;;;;;;;4.30;2.33;;;20.70;49.90;;;;;;5074371;28;20052;-67
2022/05/05 12:26:30;;;;;;;5.25;2.45;;;20.70;48.00;;;;;;5073559;28;20036;-67
2022/05/05 12:28:56;;;;;;;5.03;2.40;;;20.70;50.00;;;;;;5074711;28;20036;-67
2022/05/05 12:31:24;;;;;;;3.38;2.45;;;20.70;49.10;;;;;;5074517;28;20037;-67
2022/05/05 12:33:50;;;;;;;5.28;2.30;;;20.60;48.70;;;;;;5074509;28;20025;-67
2022/05/05 12:36:17;;;;;;;4.00;2.30;;;20.70;48.00;;;;;;5074295;28;20066;-67
2022/05/05 12:38:43;;;;;;;4.90;2.70;;;20.70;47.60;;;;;;5074466;28;20079;-67
2022/05/05 12:41:09;;;;;;;6.30;2.30;;;20.60;48.20;;;;;;5074186;28;20045;-67
2022/05/05 12:43:35;;;;;;;6.72;2.80;;;20.60;48.40;;;;;;5073079;28;20503;-67
2022/05/05 12:46:04;;;;;;;4.90;2.38;;;20.60;47.20;;;;;;5073690;28;20078;-67
2022/05/05 12:48:31;;;;;;;7.45;2.75;;;20.60;48.50;;;;;;5073856;28;20103;-66
2022/05/05 12:50:57;;;;;;;6.03;2.40;;;20.60;48.90;;;;;;5073981;28;20072;-67
2022/05/05 13:01:54;;;;;;;10.15;2.60;;;20.60;48.80;;;;;;5073853;28;20105;-68
2022/05/05 13:04:20;;;;;;;6.35;2.50;;;20.60;47.70;;;;;;5073059;28;20112;-69
2022/05/05 13:06:53;;;;;;;6.45;2.45;;;20.60;49.10;;;;;;5073565;28;20056;-67
2022/05/05 13:09:20;;;;;;;5.78;2.53;;;20.60;49.80;;;;;;5073358;28;20029;-67
2022/05/05 13:11:53;;;;;;;5.78;2.70;;;20.60;49.90;;;;;;5072428;28;20086;-69
2022/05/05 13:14:23;;;;;;;8.30;2.92;;;20.60;49.00;;;;;;5074402;28;20036;-67
2022/05/05 13:16:49;;;;;;;5.50;2.55;;;20.60;49.40;;;;;;5073792;28;20033;-67
2022/05/05 13:19:16;;;;;;;6.03;2.47;;;20.60;49.50;;;;;;5072432;28;20036;-67
2022/05/05 13:21:42;;;;;;;4.63;2.53;;;20.60;47.20;;;;;;5073153;28;20044;-68
2022/05/05 13:24:09;;;;;;;7.15;2.60;;;20.60;48.10;;;;;;5072974;28;20032;-69
2022/05/05 13:26:40;;;;;;;3.83;2.53;;;20.60;48.60;;;;;;5073000;28;20388;-69
2022/05/05 13:29:05;;;;;;;5.50;2.50;;;20.60;50.80;;;;;;5073745;28;20038;-68
2022/05/05 13:31:31;;;;;;;4.45;2.33;;;20.60;49.40;;;;;;5073567;28;20044;-68
2022/05/05 13:33:57;;;;;;;3.80;2.40;;;20.60;48.90;;;;;;5072102;28;20025;-67
2022/05/05 13:36:22;;;;;;;3.85;2.25;;;20.50;49.10;;;;;;5073229;28;20036;-68
2022/05/05 13:38:48;;;;;;;2.75;2.40;;;20.50;49.30;;;;;;5073298;28;20507;-67
2022/05/05 13:41:14;;;;;;;4.75;2.33;;;20.50;49.10;;;;;;5073170;28;20493;-68
2022/05/05 13:43:40;;;;;;;6.88;2.60;;;20.50;49.40;;;;;;5072829;28;20104;-67
2022/05/05 13:46:07;;;;;;;5.25;2.75;;;20.50;49.90;;;;;;5073421;28;20044;-68
2022/05/05 13:48:35;;;;;;;5.75;2.60;;;20.60;50.50;;;;;;5073054;28;20032;-68
2022/05/05 13:51:03;;;;;;;4.75;2.28;;;20.50;50.70;;;;;;5071897;28;20044;-68
2022/05/05 13:53:29;;;;;;;5.35;2.50;;;20.50;51.70;;;;;;5070148;28;20032;-68
2022/05/05 13:55:55;;;;;;;2.72;2.53;;;20.50;50.70;;;;;;5070373;28;20051;-68
2022/05/05 13:58:21;;;;;;;4.85;2.83;;;20.50;51.10;;;;;;5073174;28;20051;-68
2022/05/05 14:00:47;;;;;;;4.03;2.60;;;20.50;50.90;;;;;;5073105;28;20049;-69
2022/05/05 14:03:12;;;;;;;4.65;2.47;;;20.50;51.80;;;;;;5073189;28;20036;-68
2022/05/05 14:05:38;;;;;;;5.18;2.47;;;20.50;51.40;;;;;;5072864;28;20045;-68
2022/05/05 14:13:32;;;;;;;4.00;2.33;;;20.40;51.70;;;;;;5073444;28;20036;-68
2022/05/05 14:15:58;;;;;;;4.72;2.65;;;20.40;52.00;;;;;;5073001;28;20413;-68
2022/05/05 14:18:24;;;;;;;6.18;2.50;;;20.40;52.00;;;;;;5072996;28;20393;-68
2022/05/05 14:20:50;;;;;;;4.93;2.88;;;20.40;51.40;;;;;;5072667;28;20049;-68
2022/05/05 14:23:15;;;;;;;6.07;2.60;;;20.40;52.00;;;;;;5073205;28;20024;-67
2022/05/05 14:25:41;;;;;;;7.85;2.38;;;20.30;52.80;;;;;;5073216;28;20404;-67
2022/05/05 14:28:08;;;;;;;3.53;2.33;;;20.30;52.60;;;;;;5072015;28;20039;-67
2022/05/05 14:30:34;;;;;;;5.22;2.33;;;20.30;53.10;;;;;;5071463;28;20040;-68
2022/05/05 14:32:59;;;;;;;4.68;3.00;;;20.30;53.80;;;;;;5072249;28;20039;-67
2022/05/05 14:35:25;;;;;;;3.75;2.70;;;20.30;54.50;;;;;;5071658;28;20048;-68
2022/05/05 14:37:51;;;;;;;6.35;2.88;;;20.30;55.10;;;;;;5072814;28;20086;-68
2022/05/05 14:40:16;;;;;;;5.22;2.50;;;20.30;54.30;;;;;;5072119;28;20079;-68
2022/05/05 14:42:42;;;;;;;6.00;3.00;;;20.30;54.80;;;;;;5071895;28;20029;-68
2022/05/05 14:45:09;;;;;;;10.43;3.58;;;20.30;54.60;;;;;;5073845;28;20068;-67
2022/05/05 14:47:34;;;;;;;7.38;3.10;;;20.30;55.50;;;;;;5076402;28;20090;-68
2022/05/05 14:50:00;;;;;;;13.20;3.50;;;20.30;55.30;;;;;;5089819;28;20487;-67
2022/05/05 14:52:26;;;;;;;6.30;3.55;;;20.20;54.40;;;;;;5079090;28;20036;-67
2022/05/05 14:54:52;;;;;;;7.05;3.30;;;20.20;55.30;;;;;;5079441;28;20103;-67
2022/05/05 14:57:18;;;;;;;5.82;3.22;;;20.20;55.70;;;;;;5076359;28;20071;-67
2022/05/05 14:59:44;;;;;;;4.53;2.90;;;20.20;55.50;;;;;;5076070;28;20035;-68
2022/05/05 15:02:11;;;;;;;6.13;3.00;;;20.30;55.90;;;;;;5076780;28;20028;-67
2022/05/05 15:04:37;;;;;;;5.70;3.25;;;20.30;55.70;;;;;;5095736;28;20040;-67
2022/05/05 15:07:03;;;;;;;5.60;3.00;;;20.30;56.00;;;;;;5095970;28;20119;-69
2022/05/05 15:09:29;;;;;;;5.07;3.20;;;20.30;54.80;;;;;;5096250;28;20388;-67
2022/05/05 15:11:57;;;;;;;11.10;3.63;;;20.30;54.90;;;;;;5095761;28;20119;-68
2022/05/05 15:14:23;;;;;;;5.22;3.20;;;20.30;55.60;;;;;;5096384;28;20047;-67
2022/05/05 15:16:49;;;;;;;12.40;3.28;;;20.30;55.90;;;;;;5095966;28;20045;-67
2022/05/05 15:19:15;;;;;;;5.07;2.95;;;20.30;56.30;;;;;;5095897;28;20040;-66
2022/05/05 15:21:41;;;;;;;6.00;2.90;;;20.40;55.90;;;;;;5095770;28;20488;-67
2022/05/05 15:24:07;;;;;;;5.93;3.00;;;20.40;55.90;;;;;;5095939;28;20039;-67
2022/05/05 15:26:33;;;;;;;7.55;3.17;;;20.30;55.40;;;;;;5095753;28;20024;-67
2022/05/05 15:28:59;;;;;;;5.97;3.33;;;20.40;55.80;;;;;;5095619;28;20054;-67
2022/05/05 15:31:25;;;;;;;5.85;3.30;;;20.30;56.40;;;;;;5095454;28;20536;-68
2022/05/05 15:33:51;;;;;;;6.35;3.03;;;20.30;55.70;;;;;;5095531;28;20062;-67
2022/05/05 15:36:16;;;;;;;9.52;3.30;;;20.30;55.70;;;;;;5095848;28;20039;-67
2022/05/05 15:38:42;;;;;;;11.55;2.92;;;20.30;56.90;;;;;;5095397;28;20396;-67
2022/05/05 15:41:09;;;;;;;4.05;2.70;;;20.30;56.80;;;;;;5094758;28;20051;-68
2022/05/05 15:43:34;;;;;;;6.93;3.72;;;20.30;56.20;;;;;;5094400;28;20032;-67
2022/05/05 15:46:00;;;;;;;5.38;2.90;;;20.30;56.70;;;;;;5095948;28;20441;-67
2022/05/05 15:48:26;;;;;;;9.57;2.58;;;20.30;57.10;;;;;;5096008;28;20039;-67
2022/05/05 15:50:53;;;;;;;5.32;3.00;;;20.20;57.30;;;;;;5095315;28;20032;-68
2022/05/05 15:53:18;;;;;;;8.10;3.00;;;20.30;57.80;;;;;;5095698;28;20369;-68
2022/05/05 15:55:44;;;;;;;4.80;2.67;;;20.20;57.40;;;;;;5093947;28;20046;-67
2022/05/05 15:58:10;;;;;;;10.80;3.13;;;20.20;57.40;;;;;;5094865;28;20031;-68
2022/05/05 16:00:37;;;;;;;6.78;2.50;;;20.30;58.00;;;;;;5094910;28;20054;-68
2022/05/05 16:03:06;;;;;;;12.65;2.97;;;20.20;56.80;;;;;;5094973;28;20078;-67
2022/05/05 16:05:32;;;;;;;6.28;3.00;;;20.20;56.70;;;;;;5094981;28;20032;-68
2022/05/05 16:07:58;;;;;;;10.02;3.40;;;20.20;57.00;;;;;;5095112;28;20132;-67
2022/05/05 16:10:27;;;;;;;5.70;2.88;;;20.20;58.40;;;;;;5095398;28;20162;-67
2022/05/05 16:12:53;;;;;;;5.18;2.97;;;20.10;58.20;;;;;;5095498;28;20028;-67
2022/05/05 16:15:19;;;;;;;7.28;3.20;;;20.20;58.00;;;;;;5095509;28;20728;-67
2022/05/05 16:17:45;;;;;;;5.68;3.33;;;20.10;58.40;;;;;;5095660;28;20115;-67
2022/05/05 16:20:14;;;;;;;5.78;3.05;;;20.20;58.10;;;;;;5095527;28;20565;-67
2022/05/05 16:22:40;;;;;;;6.28;3.05;;;20.10;58.00;;;;;;5095413;28;20039;-67
2022/05/05 16:30:36;;;;;;;5.95;3.03;;;20.10;58.90;;;;;;5095190;28;20085;-68
2022/05/05 16:33:02;;;;;;;9.88;3.22;;;20.10;59.60;;;;;;5094516;28;20028;-68
2022/05/05 16:35:27;;;;;;;7.03;3.03;;;20.00;59.50;;;;;;5094775;28;20046;-67
2022/05/05 16:37:54;;;;;;;10.30;3.53;;;20.00;60.30;;;;;;5094647;28;20032;-68
2022/05/05 16:40:24;;;;;;;7.32;3.40;;;20.00;59.60;;;;;;5095201;28;20043;-68
2022/05/05 16:42:52;;;;;;;14.13;3.92;;;19.90;59.30;;;;;;5094822;28;20040;-68
2022/05/05 16:45:18;;;;;;;7.20;3.30;;;19.90;59.90;;;;;;5094695;28;20416;-68
2022/05/05 16:47:46;;;;;;;9.45;3.25;;;19.90;60.40;;;;;;5094766;28;20032;-67
2022/05/05 16:50:14;;;;;;;13.23;3.95;;;19.90;60.30;;;;;;5094492;28;20032;-67
2022/05/05 16:52:40;;;;;;;6.85;3.10;;;19.90;59.90;;;;;;5094543;28;20036;-68
2022/05/05 16:55:08;;;;;;;5.82;3.25;;;19.80;59.80;;;;;;5094753;28;20408;-68
2022/05/05 16:57:34;;;;;;;6.57;3.38;;;19.80;60.30;;;;;;5094893;28;20404;-68
2022/05/05 17:00:00;;;;;;;8.88;3.60;;;19.80;61.30;;;;;;5094469;28;20036;-68
2022/05/05 17:02:26;;;;;;;7.68;3.28;;;19.80;62.00;;;;;;5094625;28;20032;-68
2022/05/05 17:04:52;;;;;;;7.18;3.40;;;19.70;62.00;;;;;;5094655;28;20106;-68
2022/05/05 17:07:19;;;;;;;6.63;3.47;;;19.70;62.40;;;;;;5094461;28;20492;-67
2022/05/05 17:09:45;;;;;;;8.65;3.60;;;19.60;62.50;;;;;;5094490;28;20040;-67
2022/05/05 17:12:13;;;;;;;8.65;3.40;;;19.70;62.50;;;;;;5094488;28;20492;-67
2022/05/05 17:14:42;;;;;;;8.18;4.25;;;19.60;62.80;;;;;;5094434;28;20437;-67
2022/05/05 17:17:10;;;;;;;12.68;4.60;;;19.60;62.60;;;;;;5094171;28;20036;-68
2022/05/05 17:19:36;;;;;;;9.40;3.80;;;19.60;63.80;;;;;;5094353;28;20042;-67
2022/05/05 17:22:02;;;;;;;14.85;4.30;;;19.50;63.40;;;;;;5094143;28;20043;-67
2022/05/05 17:24:28;;;;;;;9.32;3.80;;;19.50;63.60;;;;;;5094111;28;20038;-67
2022/05/05 17:26:54;;;;;;;6.60;3.88;;;19.50;63.50;;;;;;5094327;28;20153;-68
2022/05/05 17:29:20;;;;;;;7.30;3.63;;;19.50;63.80;;;;;;5094163;28;20089;-68
2022/05/05 17:31:46;;;;;;;7.05;3.65;;;19.40;63.70;;;;;;5093243;28;20035;-68
2022/05/05 17:34:11;;;;;;;9.35;3.78;;;19.40;63.80;;;;;;5090927;28;20032;-66
2022/05/05 17:36:37;;;;;;;10.10;4.15;;;19.40;63.90;;;;;;5090798;28;20044;-67
2022/05/05 17:39:03;;;;;;;7.55;4.10;;;19.30;63.70;;;;;;5092066;28;20024;-67
2022/05/05 17:41:29;;;;;;;9.63;4.28;;;19.30;63.90;;;;;;5093271;28;20086;-67
2022/05/05 17:43:55;;;;;;;9.68;4.20;;;19.30;64.20;;;;;;5093402;28;20058;-67
2022/05/05 17:51:36;;;;;;;10.93;4.03;;;19.20;64.00;;;;;;5093219;28;20040;-67
2022/05/05 17:54:02;;;;;;;6.13;3.97;;;19.20;64.40;;;;;;5092993;28;20032;-69
2022/05/05 17:56:28;;;;;;;7.35;3.63;;;19.20;64.50;;;;;;5092233;28;20063;-67
2022/05/05 17:58:54;;;;;;;6.55;3.97;;;19.10;64.60;;;;;;5090768;28;20067;-67
2022/05/05 18:01:19;;;;;;;8.80;4.60;;;19.10;64.90;;;;;;5089619;28;20075;-67
2022/05/05 18:03:45;;;;;;;8.82;4.32;;;19.10;65.90;;;;;;5090519;28;20032;-68
2022/05/05 18:06:13;;;;;;;11.02;4.03;;;19.00;66.00;;;;;;5092283;28;20044;-67
2022/05/05 18:08:40;;;;;;;6.97;4.88;;;19.00;66.00;;;;;;5092018;28;20024;-67
2022/05/05 18:11:09;;;;;;;7.20;4.72;;;19.00;66.60;;;;;;5092395;28;20039;-67
2022/05/05 18:13:35;;;;;;;7.15;4.05;;;19.00;66.00;;;;;;5092243;28;20109;-67
2022/05/05 18:16:05;;;;;;;7.85;4.47;;;18.90;65.80;;;;;;5092184;28;20047;-67
2022/05/05 18:18:33;;;;;;;12.07;4.13;;;18.90;65.50;;;;;;5092185;28;20048;-67
2022/05/05 18:21:00;;;;;;;6.95;4.18;;;18.80;65.00;;;;;;5091917;28;20044;-68
2022/05/05 18:23:26;;;;;;;6.80;3.83;;;18.80;65.30;;;;;;5092618;28;20101;-67
2022/05/05 18:25:51;;;;;;;6.15;4.20;;;18.80;65.80;;;;;;5093050;28;20040;-68
2022/05/05 18:28:17;;;;;;;9.55;4.25;;;18.80;65.50;;;;;;5092888;28;20028;-67
2022/05/05 18:30:43;;;;;;;10.60;3.88;;;18.70;65.60;;;;;;5089765;28;20044;-67
2022/05/05 18:33:09;;;;;;;11.32;4.07;;;18.70;65.90;;;;;;5090262;28;20073;-67
2022/05/05 18:35:35;;;;;;;8.77;3.90;;;18.70;65.80;;;;;;5091188;28;20036;-67
2022/05/05 18:38:00;;;;;;;5.88;3.85;;;18.70;65.60;;;;;;5079666;28;20029;-66
2022/05/05 18:40:26;;;;;;;9.75;3.92;;;18.70;65.30;;;;;;5070543;28;20109;-67
2022/05/05 18:42:52;;;;;;;9.07;4.20;;;18.70;65.80;;;;;;5071847;28;20515;-67
2022/05/05 18:45:17;;;;;;;9.60;3.78;;;18.70;66.10;;;;;;5070238;28;20137;-67
2022/05/05 18:47:43;;;;;;;15.93;4.57;;;18.70;65.90;;;;;;5069797;28;20040;-67
2022/05/05 18:50:10;;;;;;;5.05;3.78;;;18.60;66.10;;;;;;5069841;28;20611;-66
2022/05/05 18:52:36;;;;;;;11.13;4.30;;;18.60;65.70;;;;;;5069789;28;20077;-67
2022/05/05 18:55:03;;;;;;;9.05;4.18;;;18.60;66.50;;;;;;5070158;28;20115;-67
2022/05/05 18:57:30;;;;;;;8.32;3.90;;;18.60;65.70;;;;;;5069635;28;20064;-67
2022/05/05 18:59:56;;;;;;;6.22;3.78;;;18.60;66.30;;;;;;5069644;28;20413;-67
2022/05/05 19:02:21;;;;;;;10.18;4.10;;;18.60;66.70;;;;;;5070266;28;20041;-67
2022/05/05 19:04:47;;;;;;;8.82;4.05;;;18.60;67.00;;;;;;5069673;28;20069;-66
2022/05/05 19:07:13;;;;;;;14.23;4.00;;;18.60;67.00;;;;;;5070009;28;20067;-67
2022/05/05 19:09:42;;;;;;;5.15;3.90;;;18.50;67.10;;;;;;5069799;28;20032;-67
2022/05/05 19:12:12;;;;;;;6.43;3.72;;;18.50;67.00;;;;;;5069512;28;20044;-67
2022/05/05 19:14:38;;;;;;;8.65;3.80;;;18.50;66.60;;;;;;5069136;28;20040;-67
2022/05/05 19:17:04;;;;;;;7.25;3.83;;;18.50;67.50;;;;;;5070447;28;20481;-68
2022/05/05 19:19:30;;;;;;;5.68;3.88;;;18.50;67.30;;;;;;5070148;28;20389;-67
2022/05/05 19:21:56;;;;;;;7.68;4.78;;;18.40;67.60;;;;;;5070234;28;20044;-68
2022/05/05 19:24:22;;;;;;;7.03;4.20;;;18.40;67.50;;;;;;5068968;28;20144;-67
2022/05/05 19:26:48;;;;;;;7.40;4.57;;;18.40;67.60;;;;;;5069634;28;20042;-67
2022/05/05 19:29:14;;;;;;;8.10;4.70;;;18.40;67.80;;;;;;5068824;28;20163;-66
2022/05/05 19:31:39;;;;;;;9.25;4.53;;;18.40;67.80;;;;;;5071952;28;20155;-66
2022/05/05 19:34:05;;;;;;;11.50;4.90;;;18.40;67.70;;;;;;5073149;28;20029;-66
2022/05/05 19:36:31;;;;;;;14.18;5.90;;;18.30;67.80;;;;;;5073087;28;20047;-66
2022/05/05 19:38:57;;;;;;;8.25;4.95;;;18.40;68.10;;;;;;5073684;28;20436;-67
2022/05/05 19:41:24;;;;;;;9.55;5.93;;;18.30;67.90;;;;;;5072983;28;20049;-67
2022/05/05 19:43:50;;;;;;;10.55;6.15;;;18.30;68.20;;;;;;5073084;28;20033;-66
2022/05/05 19:46:16;;;;;;;12.88;6.40;;;18.30;68.20;;;;;;5073706;28;20468;-67
2022/05/05 19:48:42;;;;;;;7.95;5.63;;;18.30;69.40;;;;;;5074248;28;20025;-67
2022/05/05 19:51:09;;;;;;;10.00;5.97;;;18.30;68.60;;;;;;5073316;28;20028;-67
2022/05/05 19:53:34;;;;;;;6.90;5.13;;;18.30;68.50;;;;;;5073324;28;20036;-66